Kars, Turkey
Current Conditions -  °F | °C
As of 1:50 AM on Tuesday 25 Nov 2014 (Local Time) from LTCF Reporting Station
Light Snow Light Snow  
Wind Chill: 21°   Ceiling: 3000
Heat Index: 27°   Visibility: 6mi
Dew Point: 27°   Wind: 5mph
Humidity: 100%   Direction: 30°NNE
Pressure: 30.09"   Gusts: NA
Location:  40.59°N, 43.07°E
Report Text: LTCF 242250Z 03004KT 9999 -SN BKN030 OVC070 M03/M03 Q1019
Loading
Personal Weather Stations






























Interactive Weather Map New forecast layout! Learn more

10-Day Weather Forecast

Advertisements
Track Severe Weather on mobile